PAL3858 RPMC-RPVM
Flight info
| Callsign | PAL3858 |
|---|---|
| Flight time | 0h 39m |
| Altitude | 24000 |
| Route | COT W21 BOLOB BOLOB3P |
| Aircraft | B738/M-SDE2E3FGHIRWXY/LB1 |
Departure
| Time | 2026-04-25 10:45 |
|---|---|
| Airport | Cotabato (Awang) Airport (RPMC) |
Arrival
| Time | 2026-04-25 11:24 |
|---|---|
| Airport | Mactan Cebu International Airport (RPVM) |
| Time | Latitude | Longitude | Altitude | Speed | Heading |
|---|---|---|---|---|---|
| 2026-04-25 10:25 | 7.16232 | 124.21544 | 180 ft | 0 kts | 220° |
| 2026-04-25 10:41 | 7.16230 | 124.21537 | 180 ft | 1 kts | 270° |
| 2026-04-25 10:42 | 7.16242 | 124.21548 | 179 ft | 8 kts | 75° |
| 2026-04-25 10:42 | 7.16293 | 124.21598 | 175 ft | 13 kts | 41° |
| 2026-04-25 10:42 | 7.16303 | 124.21707 | 171 ft | 20 kts | 96° |
| 2026-04-25 10:42 | 7.16276 | 124.21837 | 166 ft | 3 kts | 44° |
| 2026-04-25 10:43 | 7.16282 | 124.21833 | 166 ft | 1 kts | 294° |
| 2026-04-25 10:43 | 7.16286 | 124.21820 | 166 ft | 0 kts | 285° |
| 2026-04-25 10:44 | 7.16313 | 124.21712 | 170 ft | 54 kts | 282° |
| 2026-04-25 10:44 | 7.16466 | 124.21055 | 188 ft | 131 kts | 282° |
| 2026-04-25 10:45 | 7.16725 | 124.19997 | 539 ft | 157 kts | 282° |
| 2026-04-25 10:45 | 7.16972 | 124.19019 | 1395 ft | 148 kts | 283° |
| 2026-04-25 10:45 | 7.17472 | 124.18036 | 1822 ft | 167 kts | 322° |
| 2026-04-25 10:45 | 7.18500 | 124.17473 | 2383 ft | 171 kts | 342° |
| 2026-04-25 10:46 | 7.19655 | 124.17138 | 2909 ft | 179 kts | 353° |
| 2026-04-25 10:46 | 7.20943 | 124.17047 | 3443 ft | 189 kts | 2° |
| 2026-04-25 10:46 | 7.22292 | 124.17034 | 3919 ft | 204 kts | 1° |
| 2026-04-25 10:46 | 7.23798 | 124.16985 | 4401 ft | 224 kts | 0° |
| 2026-04-25 10:47 | 7.25420 | 124.16907 | 4991 ft | 239 kts | 360° |
| 2026-04-25 10:47 | 7.27136 | 124.16817 | 5600 ft | 252 kts | 360° |
| 2026-04-25 10:47 | 7.28932 | 124.16723 | 6149 ft | 268 kts | 0° |
| 2026-04-25 10:47 | 7.30863 | 124.16625 | 6734 ft | 282 kts | 0° |
| 2026-04-25 10:48 | 7.32918 | 124.16522 | 7247 ft | 299 kts | 360° |
| 2026-04-25 10:48 | 7.35060 | 124.16415 | 7757 ft | 314 kts | 360° |
| 2026-04-25 10:48 | 7.37329 | 124.16304 | 8289 ft | 328 kts | 360° |
| 2026-04-25 10:48 | 7.39644 | 124.16188 | 8965 ft | 335 kts | 360° |
| 2026-04-25 10:49 | 7.41716 | 124.16083 | 9653 ft | 338 kts | 360° |
| 2026-04-25 10:49 | 7.43068 | 124.16013 | 10071 ft | 341 kts | 359° |
| 2026-04-25 10:49 | 7.45570 | 124.15887 | 10843 ft | 346 kts | 359° |
| 2026-04-25 10:49 | 7.48396 | 124.15745 | 11693 ft | 351 kts | 359° |
| 2026-04-25 10:50 | 7.50865 | 124.15621 | 12428 ft | 356 kts | 359° |
| 2026-04-25 10:50 | 7.53323 | 124.15498 | 13171 ft | 359 kts | 359° |
| 2026-04-25 10:50 | 7.55851 | 124.15372 | 13891 ft | 364 kts | 358° |
| 2026-04-25 10:50 | 7.58408 | 124.15241 | 14633 ft | 369 kts | 358° |
| 2026-04-25 10:51 | 7.60958 | 124.15112 | 15357 ft | 373 kts | 358° |
| 2026-04-25 10:51 | 7.63488 | 124.14984 | 16043 ft | 378 kts | 358° |
| 2026-04-25 10:51 | 7.66098 | 124.14851 | 16725 ft | 382 kts | 358° |
| 2026-04-25 10:51 | 7.68675 | 124.14720 | 17380 ft | 387 kts | 358° |
| 2026-04-25 10:52 | 7.71410 | 124.14581 | 18053 ft | 391 kts | 358° |
| 2026-04-25 10:52 | 7.74171 | 124.14440 | 18716 ft | 394 kts | 358° |
| 2026-04-25 10:52 | 7.76971 | 124.14298 | 19372 ft | 398 kts | 359° |
| 2026-04-25 10:52 | 7.79681 | 124.14160 | 19960 ft | 402 kts | 359° |
| 2026-04-25 10:53 | 7.82546 | 124.14014 | 20561 ft | 406 kts | 359° |
| 2026-04-25 10:53 | 7.85337 | 124.13873 | 21169 ft | 408 kts | 359° |
| 2026-04-25 10:53 | 7.88157 | 124.13731 | 21724 ft | 412 kts | 359° |
| 2026-04-25 10:53 | 7.91114 | 124.13580 | 22301 ft | 415 kts | 359° |
| 2026-04-25 10:54 | 7.94027 | 124.13433 | 22845 ft | 419 kts | 359° |
| 2026-04-25 10:54 | 7.95978 | 124.13334 | 23226 ft | 421 kts | 359° |
| 2026-04-25 10:54 | 7.99913 | 124.13135 | 23900 ft | 426 kts | 359° |
| 2026-04-25 10:54 | 8.02897 | 124.12984 | 24001 ft | 429 kts | 359° |
| 2026-04-25 10:55 | 8.05888 | 124.12831 | 23994 ft | 424 kts | 359° |
| 2026-04-25 10:55 | 8.08836 | 124.12680 | 23983 ft | 424 kts | 358° |
| 2026-04-25 10:55 | 8.11679 | 124.12535 | 23967 ft | 426 kts | 358° |
| 2026-04-25 10:55 | 8.14633 | 124.12384 | 23953 ft | 426 kts | 358° |
| 2026-04-25 10:56 | 8.17536 | 124.12236 | 23940 ft | 427 kts | 358° |
| 2026-04-25 10:56 | 8.20521 | 124.12084 | 23925 ft | 427 kts | 359° |
| 2026-04-25 10:56 | 8.23521 | 124.11931 | 23912 ft | 427 kts | 359° |
| 2026-04-25 10:56 | 8.26487 | 124.11779 | 23901 ft | 426 kts | 359° |
| 2026-04-25 10:57 | 8.29466 | 124.11627 | 23901 ft | 426 kts | 359° |
| 2026-04-25 10:57 | 8.32361 | 124.11480 | 23898 ft | 427 kts | 359° |
| 2026-04-25 10:57 | 8.35278 | 124.11332 | 23892 ft | 427 kts | 359° |
| 2026-04-25 10:57 | 8.38273 | 124.11179 | 23886 ft | 426 kts | 358° |
| 2026-04-25 10:58 | 8.41215 | 124.11030 | 23884 ft | 426 kts | 359° |
| 2026-04-25 10:58 | 8.44125 | 124.10881 | 23880 ft | 426 kts | 358° |
| 2026-04-25 10:58 | 8.47036 | 124.10732 | 23876 ft | 426 kts | 358° |
| 2026-04-25 10:58 | 8.49947 | 124.10583 | 23879 ft | 426 kts | 359° |
| 2026-04-25 10:59 | 8.52851 | 124.10435 | 23878 ft | 426 kts | 359° |
| 2026-04-25 10:59 | 8.55849 | 124.10283 | 23875 ft | 426 kts | 359° |
| 2026-04-25 10:59 | 8.58877 | 124.10129 | 23875 ft | 426 kts | 359° |
| 2026-04-25 10:59 | 8.61864 | 124.09977 | 23875 ft | 427 kts | 359° |
| 2026-04-25 11:00 | 8.64866 | 124.09824 | 23876 ft | 427 kts | 358° |
| 2026-04-25 11:00 | 8.67876 | 124.09671 | 23874 ft | 427 kts | 358° |
| 2026-04-25 11:00 | 8.70852 | 124.09518 | 23872 ft | 427 kts | 358° |
| 2026-04-25 11:00 | 8.73837 | 124.09366 | 23871 ft | 426 kts | 358° |
| 2026-04-25 11:01 | 8.76834 | 124.09212 | 23869 ft | 426 kts | 358° |
| 2026-04-25 11:01 | 8.79767 | 124.09062 | 23867 ft | 426 kts | 359° |
| 2026-04-25 11:01 | 8.82663 | 124.08914 | 23869 ft | 426 kts | 358° |
| 2026-04-25 11:01 | 8.85570 | 124.08765 | 23869 ft | 426 kts | 358° |
| 2026-04-25 11:02 | 8.88473 | 124.08617 | 23868 ft | 427 kts | 358° |
| 2026-04-25 11:02 | 8.90847 | 124.08496 | 23867 ft | 426 kts | 358° |
| 2026-04-25 11:02 | 8.97905 | 124.08135 | 23866 ft | 427 kts | 358° |
| 2026-04-25 11:03 | 9.00873 | 124.07983 | 23866 ft | 426 kts | 358° |
| 2026-04-25 11:03 | 9.03848 | 124.07827 | 23864 ft | 427 kts | 358° |
| 2026-04-25 11:03 | 9.06822 | 124.07641 | 23865 ft | 427 kts | 358° |
| 2026-04-25 11:03 | 9.09803 | 124.07433 | 23865 ft | 428 kts | 357° |
| 2026-04-25 11:04 | 9.12738 | 124.07218 | 23864 ft | 428 kts | 357° |
| 2026-04-25 11:04 | 9.15746 | 124.06996 | 23864 ft | 429 kts | 357° |
| 2026-04-25 11:04 | 9.18728 | 124.06776 | 23865 ft | 428 kts | 357° |
| 2026-04-25 11:04 | 9.20752 | 124.06628 | 23866 ft | 427 kts | 357° |
| 2026-04-25 11:05 | 9.24702 | 124.06342 | 23869 ft | 427 kts | 357° |
| 2026-04-25 11:05 | 9.27696 | 124.06126 | 23870 ft | 427 kts | 357° |
| 2026-04-25 11:05 | 9.30698 | 124.05912 | 23869 ft | 427 kts | 357° |
| 2026-04-25 11:05 | 9.33672 | 124.05700 | 23871 ft | 428 kts | 357° |
| 2026-04-25 11:06 | 9.36678 | 124.05486 | 23871 ft | 428 kts | 357° |
| 2026-04-25 11:06 | 9.38661 | 124.05346 | 23872 ft | 428 kts | 357° |
| 2026-04-25 11:06 | 9.39641 | 124.05277 | 23873 ft | 428 kts | 357° |
| 2026-04-25 11:07 | 9.47001 | 124.04707 | 23871 ft | 427 kts | 354° |
| 2026-04-25 11:07 | 9.50817 | 124.04069 | 23727 ft | 413 kts | 349° |
| 2026-04-25 11:07 | 9.53589 | 124.03445 | 23233 ft | 410 kts | 348° |
| 2026-04-25 11:07 | 9.56349 | 124.02757 | 22678 ft | 409 kts | 347° |
| 2026-04-25 11:08 | 9.59113 | 124.02044 | 22195 ft | 405 kts | 347° |
| 2026-04-25 11:08 | 9.61865 | 124.01330 | 21694 ft | 402 kts | 347° |
| 2026-04-25 11:08 | 9.64572 | 124.00633 | 21214 ft | 398 kts | 347° |
| 2026-04-25 11:08 | 9.67259 | 123.99950 | 20775 ft | 393 kts | 347° |
| 2026-04-25 11:09 | 9.69880 | 123.99290 | 20416 ft | 379 kts | 347° |
| 2026-04-25 11:09 | 9.72400 | 123.98658 | 20066 ft | 362 kts | 347° |
| 2026-04-25 11:09 | 9.74789 | 123.98062 | 19656 ft | 350 kts | 347° |
| 2026-04-25 11:09 | 9.77153 | 123.97476 | 19031 ft | 349 kts | 347° |
| 2026-04-25 11:10 | 9.79494 | 123.96898 | 18333 ft | 355 kts | 347° |
| 2026-04-25 11:10 | 9.81073 | 123.96508 | 17867 ft | 359 kts | 347° |
| 2026-04-25 11:10 | 9.84362 | 123.95698 | 16919 ft | 365 kts | 347° |
| 2026-04-25 11:10 | 9.86839 | 123.95086 | 16221 ft | 369 kts | 347° |
| 2026-04-25 11:11 | 9.89363 | 123.94462 | 15521 ft | 373 kts | 347° |
| 2026-04-25 11:11 | 9.91887 | 123.93838 | 14827 ft | 376 kts | 347° |
| 2026-04-25 11:11 | 9.94426 | 123.93211 | 14121 ft | 378 kts | 347° |
| 2026-04-25 11:11 | 9.96963 | 123.92584 | 13379 ft | 373 kts | 347° |
| 2026-04-25 11:12 | 9.99446 | 123.91969 | 12685 ft | 363 kts | 347° |
| 2026-04-25 11:12 | 10.01869 | 123.91367 | 11977 ft | 354 kts | 347° |
| 2026-04-25 11:12 | 10.04179 | 123.90598 | 11266 ft | 348 kts | 338° |
| 2026-04-25 11:12 | 10.06198 | 123.89287 | 10556 ft | 344 kts | 316° |
| 2026-04-25 11:13 | 10.07502 | 123.87284 | 9856 ft | 341 kts | 291° |
| 2026-04-25 11:13 | 10.07960 | 123.84969 | 9189 ft | 337 kts | 275° |
| 2026-04-25 11:13 | 10.08250 | 123.82623 | 8465 ft | 338 kts | 285° |
| 2026-04-25 11:13 | 10.08758 | 123.80315 | 7730 ft | 335 kts | 276° |
| 2026-04-25 11:14 | 10.08585 | 123.77988 | 7023 ft | 331 kts | 253° |
| 2026-04-25 11:14 | 10.07575 | 123.75920 | 6310 ft | 325 kts | 230° |
| 2026-04-25 11:14 | 10.06039 | 123.74271 | 5605 ft | 321 kts | 220° |
| 2026-04-25 11:14 | 10.04304 | 123.72940 | 4889 ft | 315 kts | 204° |
| 2026-04-25 11:15 | 10.02229 | 123.72321 | 4162 ft | 305 kts | 179° |
| 2026-04-25 11:15 | 10.00189 | 123.72409 | 3986 ft | 283 kts | 169° |
| 2026-04-25 11:15 | 9.98339 | 123.72935 | 3993 ft | 272 kts | 146° |
| 2026-04-25 11:15 | 9.96960 | 123.74146 | 3999 ft | 262 kts | 120° |
| 2026-04-25 11:16 | 9.96534 | 123.77579 | 3994 ft | 253 kts | 66° |
| 2026-04-25 11:16 | 9.97576 | 123.78982 | 3994 ft | 255 kts | 37° |
| 2026-04-25 11:16 | 9.99287 | 123.79587 | 4013 ft | 265 kts | 5° |
| 2026-04-25 11:17 | 10.01115 | 123.79198 | 3997 ft | 270 kts | 343° |
| 2026-04-25 11:17 | 10.02824 | 123.78516 | 3992 ft | 255 kts | 344° |
| 2026-04-25 11:17 | 10.04466 | 123.77974 | 3999 ft | 239 kts | 350° |
| 2026-04-25 11:17 | 10.06057 | 123.77621 | 4004 ft | 225 kts | 356° |
| 2026-04-25 11:18 | 10.07600 | 123.77464 | 4008 ft | 222 kts | 4° |
| 2026-04-25 11:18 | 10.09111 | 123.77554 | 3954 ft | 212 kts | 13° |
| 2026-04-25 11:18 | 10.10534 | 123.77853 | 3816 ft | 204 kts | 20° |
| 2026-04-25 11:18 | 10.11872 | 123.78337 | 3566 ft | 203 kts | 28° |
| 2026-04-25 11:19 | 10.13115 | 123.79039 | 3217 ft | 205 kts | 38° |
| 2026-04-25 11:19 | 10.14228 | 123.79964 | 3002 ft | 204 kts | 45° |
| 2026-04-25 11:19 | 10.15196 | 123.80998 | 2991 ft | 205 kts | 52° |
| 2026-04-25 11:19 | 10.15991 | 123.82197 | 2986 ft | 205 kts | 63° |
| 2026-04-25 11:20 | 10.16687 | 123.83485 | 2992 ft | 206 kts | 57° |
| 2026-04-25 11:20 | 10.17569 | 123.84641 | 2994 ft | 205 kts | 47° |
| 2026-04-25 11:20 | 10.18633 | 123.85593 | 3003 ft | 200 kts | 39° |
| 2026-04-25 11:20 | 10.19779 | 123.86341 | 3009 ft | 189 kts | 37° |
| 2026-04-25 11:21 | 10.20744 | 123.87219 | 3121 ft | 181 kts | 47° |
| 2026-04-25 11:21 | 10.21530 | 123.88244 | 2875 ft | 185 kts | 57° |
| 2026-04-25 11:21 | 10.22265 | 123.89289 | 2639 ft | 179 kts | 52° |
| 2026-04-25 11:21 | 10.23077 | 123.90231 | 2336 ft | 176 kts | 46° |
| 2026-04-25 11:22 | 10.23952 | 123.91068 | 2071 ft | 161 kts | 44° |
| 2026-04-25 11:22 | 10.24480 | 123.91586 | 1741 ft | 162 kts | 45° |
| 2026-04-25 11:22 | 10.25536 | 123.92665 | 1233 ft | 152 kts | 46° |
| 2026-04-25 11:22 | 10.26246 | 123.93384 | 1052 ft | 140 kts | 46° |
| 2026-04-25 11:23 | 10.26942 | 123.94096 | 752 ft | 141 kts | 47° |
| 2026-04-25 11:23 | 10.27647 | 123.94829 | 574 ft | 147 kts | 46° |
| 2026-04-25 11:23 | 10.28378 | 123.95558 | 357 ft | 146 kts | 45° |
| 2026-04-25 11:23 | 10.29099 | 123.96280 | 151 ft | 143 kts | 45° |
| 2026-04-25 11:24 | 10.29799 | 123.96980 | 45 ft | 142 kts | 45° |
| 2026-04-25 11:24 | 10.30463 | 123.97648 | 38 ft | 99 kts | 45° |
| 2026-04-25 11:24 | 10.30833 | 123.98019 | 37 ft | 64 kts | 45° |
| 2026-04-25 11:24 | 10.31094 | 123.98271 | 37 ft | 34 kts | 33° |
| 2026-04-25 11:25 | 10.31198 | 123.98315 | 38 ft | 0 kts | 19° |
| 2026-04-25 11:25 | 10.31229 | 123.98326 | 37 ft | 12 kts | 18° |
| 2026-04-25 11:25 | 10.31339 | 123.98350 | 37 ft | 17 kts | 350° |
| 2026-04-25 11:26 | 10.31436 | 123.98280 | 38 ft | 17 kts | 314° |
| 2026-04-25 11:26 | 10.31522 | 123.98192 | 38 ft | 18 kts | 314° |
| 2026-04-25 11:26 | 10.31546 | 123.98087 | 38 ft | 17 kts | 224° |
| 2026-04-25 11:26 | 10.31511 | 123.98010 | 38 ft | 4 kts | 326° |
| 2026-04-25 11:27 | 10.31532 | 123.97994 | 38 ft | 4 kts | 315° |
| 2026-04-25 11:27 | 10.31548 | 123.97979 | 38 ft | 0 kts | 315° |